Overview Statistics Trail Chart Weather Telemetry Raw packets
 

This is the latest recevied weather packets stored in our database for station/object KB4MOX. If no packets are shown the sender has not sent any weather packets the latest 10 day(s).

<< 11 12 13 14 15 16 17 >>
Time Temp. Humidity Pressure Rain* Wind** Luminosity Snow
1788542553 32.22° C 58% 1017.1 hPa 0 mm - 214 W/m² -
1788542249 32.78° C 59% 1017.2 hPa 0 mm - 975 W/m² -
1788541944 32.78° C 58% 1017.1 hPa 0 mm - 139 W/m² -
1788541640 32.78° C 57% 1017.3 hPa 0 mm - 948 W/m² -
1788541344 32.22° C 60% 1017.4 hPa 0 mm - 959 W/m² -
1788541035 31.11° C 61% 1017.4 hPa 0 mm - 841 W/m² -
1788540735 31.67° C 61% 1017.4 hPa 0 mm - 170 W/m² -
1788540429 31.67° C 60% 1017.4 hPa 0 mm - 912 W/m² -
1788540129 32.22° C 59% 1017.6 hPa 0 mm - 798 W/m² -
1788539826 31.11° C 60% 1017.5 hPa 0 mm - 835 W/m² -
1788539521 32.22° C 59% 1017.6 hPa 0 mm - 616 W/m² -
1788539220 32.78° C 59% 1017.7 hPa 0 mm - 231 W/m² -
1788538915 31.67° C 61% 1017.8 hPa 0 mm - 826 W/m² -
1788538611 31.67° C 62% 1017.8 hPa 0 mm - 798 W/m² -
1788538306 31.67° C 62% 1017.8 hPa 0 mm - 775 W/m² -
1788538002 30.56° C 65% 1017.8 hPa 0 mm - 777 W/m² -
1788537697 30° C 69% 1017.9 hPa 0 mm - 813 W/m² -
1788537392 30° C 69% 1018.1 hPa 0 mm - 850 W/m² -
1788537085 30.56° C 70% 1018.3 hPa 0 mm - 158 W/m² -
1788536785 30° C 72% 1018.2 hPa 0 mm - 308 W/m² -
1788536485 29.44° C 73% 1018.3 hPa 0 mm - 271 W/m² -
1788536180 28.33° C 76% 1018.6 hPa 0 mm - 478 W/m² -
1788535875 28.89° C 75% 1018.6 hPa 0 mm - 169 W/m² -
1788535571 28.89° C 74% 1018.5 hPa 0 mm - 151 W/m² -
1788535267 28.89° C 73% 1018.4 hPa 0 mm - 235 W/m² -

* Rain latest hour (hover to see other rain measurements)
** Current wind speed in m/s (hover to see current wind gust speed)